KPVD

Theodore Francis Green State Airport

Providence, Rhode Island, USA
METAR KPVD 151851Z 17011KT 3SM -RA BR BKN049 OVC065 09/08 A2972 RMK AO2 PRESFR SLP063 P0008 T00940083
Observed Flight Rules
Feb-15 @ 18:51 UTC (36 minutes ago) Marginal Visual Flight Rules
Wind Visibility Clouds Conditions
170° at 11 knots 3 miles
  • Broken at 4,900' AGL
  • Overcast at 6,500' AGL
  • Light Rain
  • Mist
Temperatures Readings Precipitation
Current 9°C / 48°F
Dewpoint 8°C / 46°F
Humidity 94%
Altimeter 29.72" Hg
Pressure 1006.3 hPa
Elevation 16
Current Rain 0.08
METAR KPVD 151851Z 17011KT 3SM -RA BR BKN049 OVC065 09/08 A2972 RMK AO2 PRESFR SLP063 P0008 T00940083
Observed Flight Rules
Feb-15 @ 18:51 UTC
(36 minutes ago)
MVFR
Wind Visibility
170° at 11 knots 3 miles
Clouds
  • Broken at 4,900' AGL
  • Overcast at 6,500' AGL
Conditions
  • Light Rain
  • Mist
Temperature Dewpoint
9°C / 48°F 8°C / 46°F
Humidity Altimeter Pressure
94% 29.72" Hg 1006.3 hPa
Current Rain
0.08